TimePDT,TemperatureF,Dew PointF,Humidity,Sea Level PressureIn,VisibilityMPH,Wind Direction,Wind SpeedMPH,Gust SpeedMPH,PrecipitationIn,Events,Conditions,WindDirDegrees,DateUTC
12:06 AM,46.4,44.6,93,29.83,0.8,SW,3.5,-,N/A,,Mist,230,2012-10-12 07:06:00
12:43 AM,48.2,44.6,87,29.83,1.0,West,5.8,-,N/A,,Overcast,270,2012-10-12 07:43:00
12:53 AM,48.2,46.4,93,29.83,0.8,WSW,5.8,-,N/A,,Overcast,250,2012-10-12 07:53:00
1:53 AM,48.9,46.0,90,29.86,1.0,SSW,6.9,-,N/A,,Overcast,210,2012-10-12 08:53:00
2:33 AM,50.0,46.4,87,29.85,7.0,SSW,9.2,-,N/A,,Overcast,210,2012-10-12 09:33:00
2:53 AM,50.0,46.0,86,29.87,7.0,SW,6.9,-,N/A,,Overcast,220,2012-10-12 09:53:00
3:31 AM,50.0,44.6,82,29.86,10.0,SSW,9.2,-,N/A,,Overcast,210,2012-10-12 10:31:00
3:53 AM,50.0,46.0,86,29.88,7.0,South,6.9,-,N/A,,Overcast,190,2012-10-12 10:53:00
4:07 AM,50.0,46.4,87,29.86,0.5,SSE,5.8,-,N/A,,Overcast,160,2012-10-12 11:07:00
4:40 AM,48.2,46.4,93,29.87,0.5,South,6.9,-,N/A,Fog,Fog,170,2012-10-12 11:40:00
4:53 AM,48.9,46.9,93,29.89,0.5,South,6.9,-,N/A,,Overcast,180,2012-10-12 11:53:00
5:53 AM,48.9,46.9,93,29.88,0.5,SE,12.7,-,0.00,Rain,Light Rain,130,2012-10-12 12:53:00
6:09 AM,50.0,46.4,87,29.87,0.5,SSE,11.5,-,0.00,Rain,Light Rain,160,2012-10-12 13:09:00
6:13 AM,50.0,46.4,87,29.86,6.0,SSE,10.4,-,0.00,Rain,Light Rain,160,2012-10-12 13:13:00
7:53 AM,50.0,46.9,89,29.90,6.0,SSE,9.2,-,0.02,Rain,Light Rain,150,2012-10-12 14:53:00
8:53 AM,51.1,48.0,89,29.91,7.0,South,9.2,-,0.00,,Overcast,180,2012-10-12 15:53:00
9:53 AM,51.8,48.2,88,29.90,8.0,South,6.9,-,N/A,,Overcast,180,2012-10-12 16:53:00
10:42 AM,53.6,48.2,82,29.91,10.0,SSW,6.9,-,N/A,,Overcast,200,2012-10-12 17:42:00
10:53 AM,53.1,48.9,86,29.94,10.0,SSW,8.1,-,N/A,,Overcast,210,2012-10-12 17:53:00
11:53 AM,54.0,48.0,80,29.96,10.0,SW,8.1,-,N/A,,Overcast,220,2012-10-12 18:53:00
12:29 PM,53.6,48.2,82,29.94,3.0,SSW,10.4,-,0.00,Rain,Light Rain,210,2012-10-12 19:29:00
12:53 PM,53.1,50.0,89,29.96,2.0,SSW,10.4,-,0.01,Rain,Light Rain,200,2012-10-12 19:53:00
1:21 PM,53.6,51.8,94,29.92,2.0,SSW,10.4,-,0.00,,Overcast,200,2012-10-12 20:21:00
1:36 PM,53.6,51.8,94,29.92,8.0,South,11.5,-,N/A,,Overcast,190,2012-10-12 20:36:00
1:53 PM,55.9,52.0,87,29.94,10.0,South,12.7,-,0.00,,Overcast,190,2012-10-12 20:53:00
2:31 PM,55.4,51.8,88,29.92,10.0,South,11.5,-,N/A,,Overcast,190,2012-10-12 21:31:00
3:23 PM,55.4,51.8,88,29.92,10.0,SSW,12.7,-,N/A,,Overcast,210,2012-10-12 22:23:00
3:53 PM,55.0,50.0,83,29.94,10.0,SW,12.7,-,N/A,,Overcast,220,2012-10-12 22:53:00
4:53 PM,55.9,48.9,77,29.94,10.0,SW,11.5,-,N/A,,Overcast,220,2012-10-12 23:53:00
5:53 PM,55.0,48.9,80,29.94,10.0,SSW,15.0,-,N/A,,Overcast,210,2012-10-13 00:53:00
6:53 PM,55.4,48.2,77,29.94,10.0,SW,11.5,-,N/A,,Overcast,220,2012-10-13 01:53:00
7:53 PM,55.0,48.0,77,29.97,10.0,SW,10.4,-,N/A,,Overcast,230,2012-10-13 02:53:00
8:53 PM,54.0,48.9,83,29.99,4.0,SW,15.0,20.7,0.03,Rain,Rain,220,2012-10-13 03:53:00
9:53 PM,53.1,50.0,89,29.99,10.0,SSW,9.2,-,0.02,,Overcast,200,2012-10-13 04:53:00
10:53 PM,53.1,50.0,89,30.02,10.0,SSW,9.2,-,N/A,,Overcast,210,2012-10-13 05:53:00
11:53 PM,53.1,50.0,89,30.02,10.0,SSW,11.5,-,N/A,,Overcast,210,2012-10-13 06:53:00